Salina, KS (67401)

4:45 AM CDT on August 25, 2016 (GMT -0500)
Stegall's Oasis | | Change Station

Elev 1247 ft 38.82 °N, 97.63 °W | Updated 1 minute ago

Overcast
Overcast
65.8 °F
Feels Like 65.8 °F
N
0.0
Wind Variable Wind from West

Today
High -- | Low -- °F
--% Chance of Precip.
Yesterday
High -- | Low -- °F
Precip. -- in
Pressure 30.01 in
Visibility 10.0 miles
Clouds Overcast 900 ft
Dew Point 63 °F
Humidity 91%
Rainfall 0.00 in
Snow Depth Not available.
6:53 AM 8:10 PM
Waning Gibbous, 47% visible
METAR KSLN 250853Z AUTO 03006KT 10SM OVC009 20/17 A3005 RMK AO2 CIG 008V012 SLP162 T02000172 58005
Pressure 30.01 in
Visibility 10.0 miles
Clouds Overcast 900 ft
Dew Point 63 °F
Humidity 91%
Rainfall 0.00 in
Snow Depth Not available.
6:53 AM 8:10 PM
Waning Gibbous, 47% visible
METAR KSLN 250853Z AUTO 03006KT 10SM OVC009 20/17 A3005 RMK AO2 CIG 008V012 SLP162 T02000172 58005

10-Day Weather Forecast

Almanac

Astronomy

Aug. 25, 2016 Rise Set
Actual Time
Civil Twilight
Nautical Twilight
Astronomical Twilight
Moon
Length of Visible Light
Length of Day
Tomorrow will be .
, % of the Moon is Illuminated

Today's Extremes

State Highs State Lows

Community

WunderPhotos

Upload Photos

1,934,818 photos uploaded!

WunderBlog® & News

Nearby

Air Quality

  Air Quality AQ Index Pollutant
Not available.

Snow Depth

Station Depth Elevation

Earthquake Activity

City Distance Mag. Time & Date
Minimum magnitude displayed is 2.5.

Coastal Water Temperatures

Place Temperature

Stations

Nearby Weather Stations

Station Location Temp. Windchill Dew Point Humidity Wind Precip. Elev Updated Type
                   

Watches & Warnings

There are currently no watches in effect.